createdAt,value
2022-11-28T00:04:32.026Z,18.42
2022-11-28T00:09:38.209Z,21.98
2022-11-28T00:14:44.423Z,15.35
2022-11-28T00:19:51.247Z,18.50
2022-11-28T00:24:58.603Z,18.63
2022-11-28T00:30:09.390Z,17.92
2022-11-28T00:35:15.371Z,21.52
2022-11-28T00:45:37.595Z,19.95
2022-11-28T00:50:43.910Z,17.65
2022-11-28T00:55:52.733Z,15.50
2022-11-28T01:01:02.577Z,16.88
2022-11-28T01:06:39.095Z,17.73
2022-11-28T01:11:45.543Z,11.25
2022-11-28T01:16:52.325Z,13.85
2022-11-28T01:21:58.804Z,15.77
2022-11-28T01:27:04.399Z,12.45
2022-11-28T01:32:12.844Z,16.75
2022-11-28T01:37:27.968Z,15.27
2022-11-28T01:42:34.456Z,14.88
2022-11-28T01:47:40.660Z,17.05
2022-11-28T01:52:48.513Z,14.40
2022-11-28T01:57:56.296Z,29.13
2022-11-28T02:03:07.287Z,19.42
2022-11-28T02:08:13.234Z,15.68
2022-11-28T02:18:39.978Z,7.88
2022-11-28T02:24:06.419Z,14.85
2022-11-28T02:29:18.237Z,15.65
2022-11-28T02:34:36.973Z,9.15
2022-11-28T02:39:50.730Z,5.15
2022-11-28T02:45:01.088Z,9.85
2022-11-28T02:50:07.809Z,13.48
2022-11-28T02:55:14.676Z,14.52
2022-11-28T03:00:28.894Z,13.63
2022-11-28T03:05:37.959Z,10.20
2022-11-28T03:10:44.122Z,12.65
2022-11-28T03:15:52.864Z,12.98
2022-11-28T03:21:19.548Z,14.43
2022-11-28T03:26:49.590Z,13.48
2022-11-28T03:32:01.406Z,13.38
2022-11-28T03:37:20.316Z,15.35
2022-11-28T03:42:28.077Z,15.88
2022-11-28T03:47:40.497Z,15.52
2022-11-28T03:53:01.191Z,16.50
2022-11-28T03:58:13.430Z,13.00
2022-11-28T04:03:28.619Z,15.45
2022-11-28T04:08:46.028Z,18.88
2022-11-28T04:13:57.842Z,17.42
2022-11-28T04:19:26.266Z,13.30
2022-11-28T04:24:34.641Z,11.75
2022-11-28T04:29:44.160Z,13.57
2022-11-28T04:34:52.364Z,15.57
2022-11-28T04:39:59.351Z,15.27
2022-11-28T04:45:14.038Z,17.10
2022-11-28T04:50:20.015Z,14.75
2022-11-28T04:55:33.061Z,16.75
2022-11-28T05:00:39.785Z,18.65
2022-11-28T05:05:47.254Z,15.20
2022-11-28T05:10:53.052Z,19.52
2022-11-28T05:15:58.985Z,19.80
2022-11-28T05:21:08.167Z,17.00
2022-11-28T05:26:15.782Z,20.63
2022-11-28T05:31:24.061Z,17.52
2022-11-28T05:36:29.554Z,20.02
2022-11-28T05:41:35.732Z,20.98
2022-11-28T05:46:42.172Z,18.75
2022-11-28T05:51:47.914Z,25.90
2022-11-28T05:56:53.995Z,24.25
2022-11-28T06:01:59.920Z,19.42
2022-11-28T06:12:18.829Z,23.05
2022-11-28T06:17:24.965Z,16.75
2022-11-28T06:22:33.736Z,19.02
2022-11-28T06:27:39.669Z,18.50
2022-11-28T06:37:50.436Z,14.90
2022-11-28T06:42:56.191Z,16.42
2022-11-28T06:48:04.660Z,16.33
2022-11-28T06:53:16.358Z,14.07
2022-11-28T06:58:24.586Z,16.10
2022-11-28T07:03:30.332Z,16.27
2022-11-28T07:08:36.335Z,13.85
2022-11-28T07:13:42.896Z,12.48
2022-11-28T07:18:48.891Z,12.85
2022-11-28T07:23:54.951Z,14.30
2022-11-28T07:29:01.527Z,16.35
2022-11-28T07:34:07.426Z,15.95
2022-11-28T07:39:15.214Z,17.55
2022-11-28T07:44:20.936Z,13.57
2022-11-28T07:49:26.780Z,13.98
2022-11-28T07:54:32.183Z,16.50
2022-11-28T07:59:37.931Z,16.58
2022-11-28T08:04:49.408Z,17.75
2022-11-28T08:09:57.355Z,12.93
2022-11-28T08:20:08.308Z,16.75
2022-11-28T08:25:14.225Z,9.82
2022-11-28T08:30:20.396Z,18.13
2022-11-28T08:35:26.264Z,19.00
2022-11-28T08:40:32.411Z,18.45
2022-11-28T08:45:41.440Z,19.92
2022-11-28T08:50:52.788Z,21.50
2022-11-28T08:55:58.548Z,21.40
2022-11-28T09:01:04.098Z,19.40
2022-11-28T09:06:10.460Z,22.42
2022-11-28T09:11:18.952Z,22.48
2022-11-28T09:16:25.006Z,18.77
2022-11-28T09:21:30.814Z,20.58
2022-11-28T09:26:36.665Z,23.33
2022-11-28T09:31:47.177Z,20.50
2022-11-28T09:36:54.668Z,20.77
2022-11-28T09:42:03.164Z,20.98
2022-11-28T09:47:22.854Z,18.50
2022-11-28T09:52:38.155Z,20.40
2022-11-28T09:57:46.344Z,20.10
2022-11-28T10:03:10.408Z,19.27
2022-11-28T10:08:22.218Z,19.52
2022-11-28T10:13:59.891Z,18.95
2022-11-28T10:19:03.385Z,19.23
2022-11-28T10:24:29.249Z,18.80
2022-11-28T10:29:50.685Z,19.25
2022-11-28T10:34:56.509Z,18.02
2022-11-28T10:40:15.484Z,17.42
2022-11-28T10:45:32.721Z,19.08
2022-11-28T10:50:56.019Z,17.77
2022-11-28T10:56:01.584Z,17.65
2022-11-28T11:01:07.396Z,16.75
2022-11-28T11:06:13.758Z,17.60
2022-11-28T11:11:38.312Z,17.80
2022-11-28T11:16:51.524Z,19.02
2022-11-28T11:22:06.541Z,17.35
2022-11-28T11:27:24.143Z,19.43
2022-11-28T11:32:31.790Z,18.17
2022-11-28T11:37:38.867Z,17.85
2022-11-28T11:42:55.116Z,17.73
2022-11-28T11:48:01.064Z,20.83
2022-11-28T11:53:15.557Z,13.57
2022-11-28T11:58:24.561Z,16.52
2022-11-28T12:03:38.582Z,16.15
2022-11-28T12:09:00.990Z,16.45
2022-11-28T12:14:15.841Z,15.50
2022-11-28T12:19:38.402Z,14.67
2022-11-28T12:25:06.953Z,14.95
2022-11-28T12:30:27.779Z,14.63
2022-11-28T12:35:44.520Z,14.27
2022-11-28T12:41:10.466Z,13.60
2022-11-28T12:46:16.305Z,15.20
2022-11-28T12:51:27.681Z,13.27
2022-11-28T12:56:43.855Z,13.18
2022-11-28T13:07:20.866Z,14.13
2022-11-28T13:12:37.721Z,13.55
2022-11-28T13:17:53.161Z,14.57
2022-11-28T13:23:02.420Z,14.88
2022-11-28T13:28:11.435Z,14.35
2022-11-28T13:33:21.334Z,14.60
2022-11-28T13:38:44.097Z,14.70
2022-11-28T13:44:02.897Z,13.45
2022-11-28T13:49:15.230Z,11.98
2022-11-28T13:54:25.579Z,16.67
2022-11-28T13:59:32.022Z,17.73
2022-11-28T14:04:39.397Z,11.70
2022-11-28T14:09:54.283Z,16.27
2022-11-28T14:15:00.397Z,16.50
2022-11-28T14:20:15.205Z,15.13
2022-11-28T14:25:31.033Z,15.52
2022-11-28T14:30:46.704Z,17.42
2022-11-28T14:35:53.747Z,11.80
2022-11-28T14:41:00.380Z,18.83
2022-11-28T14:46:20.932Z,17.85
2022-11-28T14:51:45.083Z,14.95
2022-11-28T14:56:56.632Z,12.43
2022-11-28T15:02:11.610Z,10.48
2022-11-28T15:07:27.103Z,7.07
2022-11-28T15:12:55.993Z,12.38
2022-11-28T15:18:06.146Z,15.00
2022-11-28T15:23:28.454Z,13.35
2022-11-28T15:28:37.115Z,17.55
2022-11-28T15:33:43.815Z,12.40
2022-11-28T15:38:49.728Z,16.27
2022-11-28T15:43:57.870Z,16.85
2022-11-28T15:49:25.234Z,12.75
2022-11-28T15:54:39.088Z,9.02
2022-11-28T16:05:23.968Z,15.57
2022-11-28T16:10:32.860Z,17.83
2022-11-28T16:15:39.908Z,15.00
2022-11-28T16:20:56.164Z,14.27
2022-11-28T16:32:19.525Z,15.30
2022-11-28T16:37:29.144Z,15.98
2022-11-28T16:42:36.848Z,12.70
2022-11-28T16:47:42.885Z,5.18
2022-11-28T16:52:50.601Z,14.60
2022-11-28T16:58:16.288Z,12.23
2022-11-28T17:03:43.790Z,13.95
2022-11-28T17:08:50.274Z,11.70
2022-11-28T17:14:02.273Z,13.05
2022-11-28T17:19:27.522Z,13.48
2022-11-28T17:24:39.747Z,13.48
2022-11-28T17:29:45.901Z,11.52
2022-11-28T17:34:52.233Z,9.75
2022-11-28T17:40:16.208Z,12.48
2022-11-28T17:45:23.348Z,10.60
2022-11-28T17:50:29.393Z,6.78
2022-11-28T17:55:36.135Z,8.20
2022-11-28T18:00:46.534Z,9.13
2022-11-28T18:05:56.068Z,8.60
2022-11-28T18:11:08.413Z,10.27
2022-11-28T18:16:15.451Z,7.80
2022-11-28T18:21:21.745Z,6.40
2022-11-28T18:26:31.081Z,10.13
2022-11-28T18:31:40.791Z,8.00
2022-11-28T18:36:50.377Z,4.07
2022-11-28T18:41:59.236Z,8.38
2022-11-28T18:47:06.362Z,9.00
2022-11-28T18:52:14.091Z,11.43
2022-11-28T18:57:20.893Z,9.43
2022-11-28T19:02:27.095Z,11.10
2022-11-28T19:07:33.312Z,10.13
2022-11-28T19:12:40.037Z,10.27
2022-11-28T19:17:49.226Z,8.13
2022-11-28T19:22:55.237Z,8.70
2022-11-28T19:28:01.544Z,8.15
2022-11-28T19:33:10.939Z,9.95
2022-11-28T19:38:16.958Z,11.07
2022-11-28T19:43:26.207Z,9.52
2022-11-28T19:48:33.266Z,9.95
2022-11-28T19:53:40.069Z,9.88
2022-11-28T19:58:47.914Z,9.43
2022-11-28T20:03:57.092Z,9.18
2022-11-28T20:09:05.183Z,10.60
2022-11-28T20:14:19.562Z,10.82
2022-11-28T20:19:26.166Z,8.68
2022-11-28T20:24:32.380Z,10.98
2022-11-28T20:29:38.802Z,10.52
2022-11-28T20:34:44.997Z,18.05
2022-11-28T20:39:51.078Z,14.93
2022-11-28T20:45:00.896Z,13.85
2022-11-28T20:50:08.680Z,14.25
2022-11-28T20:55:17.438Z,15.77
2022-11-28T21:00:26.562Z,14.77
2022-11-28T21:05:32.993Z,12.77
2022-11-28T21:10:38.971Z,13.95
2022-11-28T21:20:54.502Z,16.92
2022-11-28T21:26:00.188Z,15.27
2022-11-28T21:31:10.046Z,13.60
2022-11-28T21:36:16.120Z,14.18
2022-11-28T21:46:27.672Z,15.35
2022-11-28T21:51:33.770Z,12.60
2022-11-28T21:56:40.117Z,13.93
2022-11-28T22:01:46.679Z,14.23
2022-11-28T22:06:53.241Z,15.45
2022-11-28T22:11:58.863Z,16.42
2022-11-28T22:17:05.631Z,16.92
2022-11-28T22:22:12.214Z,19.00
2022-11-28T22:27:18.686Z,16.98
2022-11-28T22:37:29.839Z,17.80
2022-11-28T22:42:36.436Z,19.05
2022-11-28T22:47:41.947Z,17.77
2022-11-28T22:52:47.471Z,19.20
2022-11-28T22:57:53.307Z,20.00
2022-11-28T23:02:59.374Z,19.70
2022-11-28T23:08:05.257Z,19.55
2022-11-28T23:18:17.679Z,21.50
2022-11-28T23:23:24.377Z,21.80
2022-11-28T23:28:31.386Z,22.42
2022-11-28T23:33:37.629Z,22.58
2022-11-28T23:38:43.805Z,25.05
2022-11-28T23:43:50.432Z,25.23
2022-11-28T23:48:57.032Z,23.73
2022-11-28T23:54:02.901Z,26.70
